sensor_id;sensor_type;location;lat;lon;timestamp;P1;durP1;ratioP1;P2;durP2;ratioP2
41709;SDS011;59402;48.396;-4.472;2022-11-28T00:00:26;22.85;;;3.25;;
41709;SDS011;59402;48.396;-4.472;2022-11-28T00:02:52;19.85;;;3.50;;
41709;SDS011;59402;48.396;-4.472;2022-11-28T00:05:17;22.80;;;4.35;;
41709;SDS011;59402;48.396;-4.472;2022-11-28T00:07:43;22.20;;;3.33;;
41709;SDS011;59402;48.396;-4.472;2022-11-28T00:10:08;27.80;;;4.65;;
41709;SDS011;59402;48.396;-4.472;2022-11-28T00:12:35;26.35;;;3.75;;
41709;SDS011;59402;48.396;-4.472;2022-11-28T00:15:00;23.45;;;4.10;;
41709;SDS011;59402;48.396;-4.472;2022-11-28T00:17:26;26.55;;;3.95;;
41709;SDS011;59402;48.396;-4.472;2022-11-28T00:19:51;27.00;;;4.03;;
41709;SDS011;59402;48.396;-4.472;2022-11-28T00:22:17;29.63;;;4.68;;
41709;SDS011;59402;48.396;-4.472;2022-11-28T00:24:42;25.75;;;3.70;;
41709;SDS011;59402;48.396;-4.472;2022-11-28T00:27:08;28.20;;;4.25;;
41709;SDS011;59402;48.396;-4.472;2022-11-28T00:29:34;30.83;;;5.00;;
41709;SDS011;59402;48.396;-4.472;2022-11-28T00:32:00;24.85;;;3.72;;
41709;SDS011;59402;48.396;-4.472;2022-11-28T00:34:25;30.20;;;4.00;;
41709;SDS011;59402;48.396;-4.472;2022-11-28T00:36:51;21.80;;;4.07;;
41709;SDS011;59402;48.396;-4.472;2022-11-28T00:39:16;33.45;;;4.28;;
41709;SDS011;59402;48.396;-4.472;2022-11-28T00:41:42;36.40;;;4.20;;
41709;SDS011;59402;48.396;-4.472;2022-11-28T00:44:09;25.15;;;4.22;;
41709;SDS011;59402;48.396;-4.472;2022-11-28T00:46:35;21.73;;;3.88;;
41709;SDS011;59402;48.396;-4.472;2022-11-28T00:49:01;31.23;;;4.65;;
41709;SDS011;59402;48.396;-4.472;2022-11-28T00:51:28;33.70;;;4.53;;
41709;SDS011;59402;48.396;-4.472;2022-11-28T00:53:55;26.75;;;3.67;;
41709;SDS011;59402;48.396;-4.472;2022-11-28T00:56:23;30.50;;;3.53;;
41709;SDS011;59402;48.396;-4.472;2022-11-28T00:58:50;31.60;;;4.80;;
41709;SDS011;59402;48.396;-4.472;2022-11-28T01:01:17;26.50;;;4.32;;
41709;SDS011;59402;48.396;-4.472;2022-11-28T01:03:48;25.02;;;4.75;;
41709;SDS011;59402;48.396;-4.472;2022-11-28T01:06:22;32.80;;;4.85;;
41709;SDS011;59402;48.396;-4.472;2022-11-28T01:08:49;27.95;;;3.90;;
41709;SDS011;59402;48.396;-4.472;2022-11-28T01:11:14;26.77;;;4.80;;
41709;SDS011;59402;48.396;-4.472;2022-11-28T01:13:40;28.10;;;4.38;;
41709;SDS011;59402;48.396;-4.472;2022-11-28T01:16:06;24.02;;;4.65;;
41709;SDS011;59402;48.396;-4.472;2022-11-28T01:18:32;26.97;;;3.80;;
41709;SDS011;59402;48.396;-4.472;2022-11-28T01:20:57;26.50;;;4.18;;
41709;SDS011;59402;48.396;-4.472;2022-11-28T01:23:23;23.83;;;4.18;;
41709;SDS011;59402;48.396;-4.472;2022-11-28T01:25:48;33.15;;;4.50;;
41709;SDS011;59402;48.396;-4.472;2022-11-28T01:28:14;29.73;;;5.07;;
41709;SDS011;59402;48.396;-4.472;2022-11-28T01:30:39;28.60;;;3.88;;
41709;SDS011;59402;48.396;-4.472;2022-11-28T01:33:05;26.42;;;3.70;;
41709;SDS011;59402;48.396;-4.472;2022-11-28T01:35:30;27.30;;;4.18;;
41709;SDS011;59402;48.396;-4.472;2022-11-28T01:37:55;26.30;;;4.32;;
41709;SDS011;59402;48.396;-4.472;2022-11-28T01:40:21;28.10;;;4.35;;
41709;SDS011;59402;48.396;-4.472;2022-11-28T01:42:46;24.15;;;3.72;;
41709;SDS011;59402;48.396;-4.472;2022-11-28T01:47:40;28.38;;;4.18;;
41709;SDS011;59402;48.396;-4.472;2022-11-28T01:50:07;27.60;;;4.50;;
41709;SDS011;59402;48.396;-4.472;2022-11-28T01:52:34;31.23;;;4.63;;
41709;SDS011;59402;48.396;-4.472;2022-11-28T01:55:01;31.20;;;4.45;;
41709;SDS011;59402;48.396;-4.472;2022-11-28T01:57:28;29.98;;;3.50;;
41709;SDS011;59402;48.396;-4.472;2022-11-28T02:00:10;28.70;;;4.70;;
41709;SDS011;59402;48.396;-4.472;2022-11-28T02:02:45;34.00;;;5.00;;
41709;SDS011;59402;48.396;-4.472;2022-11-28T02:05:12;26.13;;;4.20;;
41709;SDS011;59402;48.396;-4.472;2022-11-28T02:07:40;29.55;;;4.55;;
41709;SDS011;59402;48.396;-4.472;2022-11-28T02:10:08;24.25;;;4.55;;
41709;SDS011;59402;48.396;-4.472;2022-11-28T02:15:33;25.05;;;4.40;;
41709;SDS011;59402;48.396;-4.472;2022-11-28T02:23:29;23.67;;;3.58;;
41709;SDS011;59402;48.396;-4.472;2022-11-28T02:28:49;25.98;;;3.85;;
41709;SDS011;59402;48.396;-4.472;2022-11-28T02:33:51;25.10;;;4.18;;
41709;SDS011;59402;48.396;-4.472;2022-11-28T02:36:21;31.45;;;5.18;;
41709;SDS011;59402;48.396;-4.472;2022-11-28T02:46:49;27.95;;;3.88;;
41709;SDS011;59402;48.396;-4.472;2022-11-28T02:49:25;32.60;;;5.28;;
41709;SDS011;59402;48.396;-4.472;2022-11-28T02:54:24;27.20;;;3.85;;
41709;SDS011;59402;48.396;-4.472;2022-11-28T02:56:51;31.27;;;3.73;;
41709;SDS011;59402;48.396;-4.472;2022-11-28T03:02:12;23.83;;;3.40;;
41709;SDS011;59402;48.396;-4.472;2022-11-28T03:05:03;30.75;;;3.40;;
41709;SDS011;59402;48.396;-4.472;2022-11-28T03:08:12;24.75;;;3.25;;
41709;SDS011;59402;48.396;-4.472;2022-11-28T03:16:29;18.48;;;3.20;;
41709;SDS011;59402;48.396;-4.472;2022-11-28T03:19:18;23.57;;;3.67;;
41709;SDS011;59402;48.396;-4.472;2022-11-28T03:22:08;22.33;;;3.60;;
41709;SDS011;59402;48.396;-4.472;2022-11-28T03:24:39;29.05;;;3.50;;
41709;SDS011;59402;48.396;-4.472;2022-11-28T03:30:12;24.83;;;3.42;;
41709;SDS011;59402;48.396;-4.472;2022-11-28T03:32:41;24.38;;;4.10;;
41709;SDS011;59402;48.396;-4.472;2022-11-28T03:35:09;32.42;;;3.55;;
41709;SDS011;59402;48.396;-4.472;2022-11-28T03:37:41;26.85;;;4.85;;
41709;SDS011;59402;48.396;-4.472;2022-11-28T03:40:12;27.85;;;4.32;;
41709;SDS011;59402;48.396;-4.472;2022-11-28T03:42:45;28.63;;;3.58;;
41709;SDS011;59402;48.396;-4.472;2022-11-28T03:45:17;30.25;;;4.38;;
41709;SDS011;59402;48.396;-4.472;2022-11-28T03:47:46;31.98;;;5.68;;
41709;SDS011;59402;48.396;-4.472;2022-11-28T03:50:18;34.20;;;4.85;;
41709;SDS011;59402;48.396;-4.472;2022-11-28T03:52:50;27.83;;;3.72;;
41709;SDS011;59402;48.396;-4.472;2022-11-28T03:55:22;26.25;;;3.63;;
41709;SDS011;59402;48.396;-4.472;2022-11-28T03:58:26;21.40;;;4.35;;
41709;SDS011;59402;48.396;-4.472;2022-11-28T04:00:49;26.77;;;3.72;;
41709;SDS011;59402;48.396;-4.472;2022-11-28T04:03:36;18.75;;;3.65;;
41709;SDS011;59402;48.396;-4.472;2022-11-28T04:06:06;19.40;;;2.60;;
41709;SDS011;59402;48.396;-4.472;2022-11-28T04:08:39;19.05;;;2.40;;
41709;SDS011;59402;48.396;-4.472;2022-11-28T04:11:11;20.00;;;2.97;;
41709;SDS011;59402;48.396;-4.472;2022-11-28T04:16:49;16.67;;;2.35;;
41709;SDS011;59402;48.396;-4.472;2022-11-28T04:19:19;18.20;;;2.83;;
41709;SDS011;59402;48.396;-4.472;2022-11-28T04:24:32;16.15;;;1.92;;
41709;SDS011;59402;48.396;-4.472;2022-11-28T04:27:01;14.95;;;2.63;;
41709;SDS011;59402;48.396;-4.472;2022-11-28T04:29:30;18.55;;;3.08;;
41709;SDS011;59402;48.396;-4.472;2022-11-28T04:31:58;16.83;;;2.58;;
41709;SDS011;59402;48.396;-4.472;2022-11-28T04:34:24;26.95;;;2.80;;
41709;SDS011;59402;48.396;-4.472;2022-11-28T04:36:50;21.50;;;4.20;;
41709;SDS011;59402;48.396;-4.472;2022-11-28T04:39:18;18.45;;;3.40;;
41709;SDS011;59402;48.396;-4.472;2022-11-28T04:41:53;23.67;;;3.75;;
41709;SDS011;59402;48.396;-4.472;2022-11-28T04:49:16;25.63;;;3.30;;
41709;SDS011;59402;48.396;-4.472;2022-11-28T04:51:43;23.05;;;3.55;;
41709;SDS011;59402;48.396;-4.472;2022-11-28T04:57:15;18.73;;;3.40;;
41709;SDS011;59402;48.396;-4.472;2022-11-28T04:59:42;20.33;;;3.42;;
41709;SDS011;59402;48.396;-4.472;2022-11-28T05:02:08;13.77;;;2.63;;
41709;SDS011;59402;48.396;-4.472;2022-11-28T05:04:34;19.70;;;2.85;;
41709;SDS011;59402;48.396;-4.472;2022-11-28T05:07:01;27.23;;;3.25;;
41709;SDS011;59402;48.396;-4.472;2022-11-28T05:09:28;18.67;;;3.50;;
41709;SDS011;59402;48.396;-4.472;2022-11-28T05:11:53;20.70;;;2.95;;
41709;SDS011;59402;48.396;-4.472;2022-11-28T05:14:19;19.02;;;2.50;;
41709;SDS011;59402;48.396;-4.472;2022-11-28T05:16:44;18.33;;;2.88;;
41709;SDS011;59402;48.396;-4.472;2022-11-28T05:19:10;20.80;;;3.72;;
41709;SDS011;59402;48.396;-4.472;2022-11-28T05:21:35;20.90;;;3.28;;
41709;SDS011;59402;48.396;-4.472;2022-11-28T05:24:01;21.40;;;4.25;;
41709;SDS011;59402;48.396;-4.472;2022-11-28T05:26:26;13.00;;;2.35;;
41709;SDS011;59402;48.396;-4.472;2022-11-28T05:28:56;12.65;;;2.00;;
41709;SDS011;59402;48.396;-4.472;2022-11-28T05:31:21;10.75;;;1.67;;
41709;SDS011;59402;48.396;-4.472;2022-11-28T05:33:47;9.57;;;1.30;;
41709;SDS011;59402;48.396;-4.472;2022-11-28T05:36:13;9.57;;;1.40;;
41709;SDS011;59402;48.396;-4.472;2022-11-28T05:38:40;8.07;;;1.38;;
41709;SDS011;59402;48.396;-4.472;2022-11-28T05:41:05;10.43;;;1.83;;
41709;SDS011;59402;48.396;-4.472;2022-11-28T05:43:31;6.72;;;1.08;;
41709;SDS011;59402;48.396;-4.472;2022-11-28T05:45:57;9.15;;;1.92;;
41709;SDS011;59402;48.396;-4.472;2022-11-28T05:48:22;10.82;;;1.20;;
41709;SDS011;59402;48.396;-4.472;2022-11-28T05:50:48;11.77;;;1.42;;
41709;SDS011;59402;48.396;-4.472;2022-11-28T05:53:17;18.20;;;2.83;;
41709;SDS011;59402;48.396;-4.472;2022-11-28T05:55:43;9.63;;;1.13;;
41709;SDS011;59402;48.396;-4.472;2022-11-28T05:58:09;8.90;;;1.63;;
41709;SDS011;59402;48.396;-4.472;2022-11-28T06:00:34;9.88;;;1.63;;
41709;SDS011;59402;48.396;-4.472;2022-11-28T06:03:00;12.73;;;1.70;;
41709;SDS011;59402;48.396;-4.472;2022-11-28T06:05:26;9.82;;;1.27;;
41709;SDS011;59402;48.396;-4.472;2022-11-28T06:07:51;12.02;;;2.10;;
41709;SDS011;59402;48.396;-4.472;2022-11-28T06:10:17;13.30;;;1.88;;
41709;SDS011;59402;48.396;-4.472;2022-11-28T06:12:43;15.15;;;2.10;;
41709;SDS011;59402;48.396;-4.472;2022-11-28T06:15:09;14.40;;;2.38;;
41709;SDS011;59402;48.396;-4.472;2022-11-28T06:17:34;22.70;;;2.75;;
41709;SDS011;59402;48.396;-4.472;2022-11-28T06:20:00;19.45;;;2.42;;
41709;SDS011;59402;48.396;-4.472;2022-11-28T06:22:25;20.75;;;2.92;;
41709;SDS011;59402;48.396;-4.472;2022-11-28T06:24:51;23.10;;;2.75;;
41709;SDS011;59402;48.396;-4.472;2022-11-28T06:27:16;20.05;;;3.10;;
41709;SDS011;59402;48.396;-4.472;2022-11-28T06:29:42;21.48;;;3.22;;
41709;SDS011;59402;48.396;-4.472;2022-11-28T06:32:07;20.90;;;2.60;;
41709;SDS011;59402;48.396;-4.472;2022-11-28T06:34:32;17.83;;;3.20;;
41709;SDS011;59402;48.396;-4.472;2022-11-28T06:36:58;28.45;;;3.75;;
41709;SDS011;59402;48.396;-4.472;2022-11-28T06:39:24;27.27;;;3.78;;
41709;SDS011;59402;48.396;-4.472;2022-11-28T06:41:49;22.33;;;3.40;;
41709;SDS011;59402;48.396;-4.472;2022-11-28T06:44:15;24.88;;;3.40;;
41709;SDS011;59402;48.396;-4.472;2022-11-28T06:46:41;30.90;;;3.38;;
41709;SDS011;59402;48.396;-4.472;2022-11-28T06:49:07;25.20;;;3.25;;
41709;SDS011;59402;48.396;-4.472;2022-11-28T06:51:37;19.98;;;2.75;;
41709;SDS011;59402;48.396;-4.472;2022-11-28T06:54:14;18.88;;;2.08;;
41709;SDS011;59402;48.396;-4.472;2022-11-28T06:56:45;18.52;;;2.08;;
41709;SDS011;59402;48.396;-4.472;2022-11-28T06:59:42;15.65;;;1.73;;
41709;SDS011;59402;48.396;-4.472;2022-11-28T07:03:06;12.90;;;1.60;;
41709;SDS011;59402;48.396;-4.472;2022-11-28T07:06:01;15.38;;;1.30;;
41709;SDS011;59402;48.396;-4.472;2022-11-28T07:08:28;7.87;;;1.13;;
41709;SDS011;59402;48.396;-4.472;2022-11-28T07:10:55;9.02;;;1.40;;
41709;SDS011;59402;48.396;-4.472;2022-11-28T07:13:56;17.33;;;1.55;;
41709;SDS011;59402;48.396;-4.472;2022-11-28T07:16:26;9.18;;;1.13;;
41709;SDS011;59402;48.396;-4.472;2022-11-28T07:18:54;13.25;;;1.38;;
41709;SDS011;59402;48.396;-4.472;2022-11-28T07:21:55;13.60;;;1.90;;
41709;SDS011;59402;48.396;-4.472;2022-11-28T07:25:19;14.50;;;1.63;;
41709;SDS011;59402;48.396;-4.472;2022-11-28T07:27:46;12.23;;;1.40;;
41709;SDS011;59402;48.396;-4.472;2022-11-28T07:30:12;15.27;;;1.90;;
41709;SDS011;59402;48.396;-4.472;2022-11-28T07:32:38;11.73;;;1.90;;
41709;SDS011;59402;48.396;-4.472;2022-11-28T07:35:05;16.53;;;1.73;;
41709;SDS011;59402;48.396;-4.472;2022-11-28T07:37:32;17.58;;;2.15;;
41709;SDS011;59402;48.396;-4.472;2022-11-28T07:39:57;12.15;;;1.80;;
41709;SDS011;59402;48.396;-4.472;2022-11-28T07:42:23;14.23;;;1.83;;
41709;SDS011;59402;48.396;-4.472;2022-11-28T07:45:01;19.70;;;2.10;;
41709;SDS011;59402;48.396;-4.472;2022-11-28T07:47:26;16.85;;;1.98;;
41709;SDS011;59402;48.396;-4.472;2022-11-28T07:49:52;16.30;;;2.47;;
41709;SDS011;59402;48.396;-4.472;2022-11-28T07:52:18;14.25;;;2.13;;
41709;SDS011;59402;48.396;-4.472;2022-11-28T07:54:43;20.73;;;2.88;;
41709;SDS011;59402;48.396;-4.472;2022-11-28T07:57:09;13.93;;;2.10;;
41709;SDS011;59402;48.396;-4.472;2022-11-28T07:59:35;12.10;;;2.20;;
41709;SDS011;59402;48.396;-4.472;2022-11-28T08:02:00;19.95;;;2.33;;
41709;SDS011;59402;48.396;-4.472;2022-11-28T08:04:25;18.25;;;2.70;;
41709;SDS011;59402;48.396;-4.472;2022-11-28T08:06:51;21.20;;;2.70;;
41709;SDS011;59402;48.396;-4.472;2022-11-28T08:09:16;20.50;;;2.78;;
41709;SDS011;59402;48.396;-4.472;2022-11-28T08:11:42;20.23;;;2.67;;
41709;SDS011;59402;48.396;-4.472;2022-11-28T08:14:07;20.17;;;2.67;;
41709;SDS011;59402;48.396;-4.472;2022-11-28T08:16:33;21.88;;;2.78;;
41709;SDS011;59402;48.396;-4.472;2022-11-28T08:18:59;18.20;;;2.05;;
41709;SDS011;59402;48.396;-4.472;2022-11-28T08:21:27;28.52;;;2.85;;
41709;SDS011;59402;48.396;-4.472;2022-11-28T08:24:04;21.15;;;2.20;;
41709;SDS011;59402;48.396;-4.472;2022-11-28T08:26:32;21.58;;;2.65;;
41709;SDS011;59402;48.396;-4.472;2022-11-28T08:28:58;23.27;;;2.78;;
41709;SDS011;59402;48.396;-4.472;2022-11-28T08:33:56;15.75;;;2.22;;
41709;SDS011;59402;48.396;-4.472;2022-11-28T08:36:56;17.17;;;2.83;;
41709;SDS011;59402;48.396;-4.472;2022-11-28T08:39:26;23.95;;;2.65;;
41709;SDS011;59402;48.396;-4.472;2022-11-28T08:42:50;22.25;;;3.08;;
41709;SDS011;59402;48.396;-4.472;2022-11-28T08:46:16;27.77;;;3.92;;
41709;SDS011;59402;48.396;-4.472;2022-11-28T08:49:40;28.83;;;4.10;;
41709;SDS011;59402;48.396;-4.472;2022-11-28T08:53:09;19.70;;;2.92;;
41709;SDS011;59402;48.396;-4.472;2022-11-28T08:56:33;20.52;;;3.17;;
41709;SDS011;59402;48.396;-4.472;2022-11-28T08:59:57;27.92;;;3.20;;
41709;SDS011;59402;48.396;-4.472;2022-11-28T09:03:21;26.60;;;4.85;;
41709;SDS011;59402;48.396;-4.472;2022-11-28T09:06:33;29.23;;;4.32;;
41709;SDS011;59402;48.396;-4.472;2022-11-28T09:08:59;27.05;;;3.72;;
41709;SDS011;59402;48.396;-4.472;2022-11-28T09:13:52;19.85;;;3.92;;
41709;SDS011;59402;48.396;-4.472;2022-11-28T09:16:18;28.05;;;4.03;;
41709;SDS011;59402;48.396;-4.472;2022-11-28T09:18:43;26.67;;;3.70;;
41709;SDS011;59402;48.396;-4.472;2022-11-28T09:21:09;25.60;;;3.60;;
41709;SDS011;59402;48.396;-4.472;2022-11-28T09:23:37;19.88;;;3.70;;
41709;SDS011;59402;48.396;-4.472;2022-11-28T09:26:22;24.52;;;3.22;;
41709;SDS011;59402;48.396;-4.472;2022-11-28T09:28:51;23.95;;;3.92;;
41709;SDS011;59402;48.396;-4.472;2022-11-28T09:31:17;19.20;;;3.22;;
41709;SDS011;59402;48.396;-4.472;2022-11-28T09:33:43;23.50;;;3.67;;
41709;SDS011;59402;48.396;-4.472;2022-11-28T09:36:11;19.83;;;3.15;;
41709;SDS011;59402;48.396;-4.472;2022-11-28T09:38:38;23.25;;;2.83;;
41709;SDS011;59402;48.396;-4.472;2022-11-28T09:41:18;16.92;;;2.72;;
41709;SDS011;59402;48.396;-4.472;2022-11-28T09:44:21;28.17;;;3.17;;
41709;SDS011;59402;48.396;-4.472;2022-11-28T09:46:50;19.35;;;2.83;;
41709;SDS011;59402;48.396;-4.472;2022-11-28T09:49:22;19.38;;;2.55;;
41709;SDS011;59402;48.396;-4.472;2022-11-28T09:51:54;18.42;;;2.65;;
41709;SDS011;59402;48.396;-4.472;2022-11-28T09:54:24;17.10;;;2.67;;
41709;SDS011;59402;48.396;-4.472;2022-11-28T09:57:02;17.40;;;2.72;;
41709;SDS011;59402;48.396;-4.472;2022-11-28T09:59:32;21.60;;;2.70;;
41709;SDS011;59402;48.396;-4.472;2022-11-28T10:04:49;15.68;;;2.20;;
41709;SDS011;59402;48.396;-4.472;2022-11-28T10:15:08;14.45;;;2.00;;
41709;SDS011;59402;48.396;-4.472;2022-11-28T10:20:26;11.40;;;2.55;;
41709;SDS011;59402;48.396;-4.472;2022-11-28T10:23:00;16.00;;;2.65;;
41709;SDS011;59402;48.396;-4.472;2022-11-28T10:27:52;14.18;;;2.65;;
41709;SDS011;59402;48.396;-4.472;2022-11-28T10:32:53;18.75;;;3.17;;
41709;SDS011;59402;48.396;-4.472;2022-11-28T10:38:13;13.60;;;1.95;;
41709;SDS011;59402;48.396;-4.472;2022-11-28T10:40:51;12.35;;;2.13;;
41709;SDS011;59402;48.396;-4.472;2022-11-28T10:43:26;17.20;;;2.55;;
41709;SDS011;59402;48.396;-4.472;2022-11-28T11:01:39;15.40;;;3.92;;
41709;SDS011;59402;48.396;-4.472;2022-11-28T11:04:05;24.58;;;4.78;;
41709;SDS011;59402;48.396;-4.472;2022-11-28T11:06:38;19.13;;;2.78;;
41709;SDS011;59402;48.396;-4.472;2022-11-28T11:09:03;21.23;;;4.45;;
41709;SDS011;59402;48.396;-4.472;2022-11-28T11:11:31;15.93;;;2.72;;
41709;SDS011;59402;48.396;-4.472;2022-11-28T11:14:00;17.20;;;3.63;;
41709;SDS011;59402;48.396;-4.472;2022-11-28T11:16:49;17.30;;;3.38;;
41709;SDS011;59402;48.396;-4.472;2022-11-28T11:22:03;19.63;;;3.33;;
41709;SDS011;59402;48.396;-4.472;2022-11-28T11:24:29;21.17;;;3.30;;
41709;SDS011;59402;48.396;-4.472;2022-11-28T11:27:02;17.52;;;3.05;;
41709;SDS011;59402;48.396;-4.472;2022-11-28T11:29:34;16.73;;;4.20;;
41709;SDS011;59402;48.396;-4.472;2022-11-28T11:32:01;19.45;;;4.10;;
41709;SDS011;59402;48.396;-4.472;2022-11-28T11:34:34;15.90;;;3.45;;
41709;SDS011;59402;48.396;-4.472;2022-11-28T11:37:29;19.50;;;2.25;;
41709;SDS011;59402;48.396;-4.472;2022-11-28T11:39:55;20.25;;;3.35;;
41709;SDS011;59402;48.396;-4.472;2022-11-28T11:42:22;19.27;;;2.83;;
41709;SDS011;59402;48.396;-4.472;2022-11-28T11:44:51;13.57;;;2.83;;
41709;SDS011;59402;48.396;-4.472;2022-11-28T11:47:17;23.05;;;3.10;;
41709;SDS011;59402;48.396;-4.472;2022-11-28T11:49:47;22.50;;;3.03;;
41709;SDS011;59402;48.396;-4.472;2022-11-28T11:58:04;13.70;;;2.80;;
41709;SDS011;59402;48.396;-4.472;2022-11-28T12:00:17;21.00;;;3.50;;
41709;SDS011;59402;48.396;-4.472;2022-11-28T12:05:15;17.08;;;2.92;;
41709;SDS011;59402;48.396;-4.472;2022-11-28T12:07:58;17.15;;;6.32;;
41709;SDS011;59402;48.396;-4.472;2022-11-28T12:10:26;20.92;;;4.35;;
41709;SDS011;59402;48.396;-4.472;2022-11-28T12:12:54;23.00;;;9.20;;
41709;SDS011;59402;48.396;-4.472;2022-11-28T12:21:12;18.92;;;3.83;;
41709;SDS011;59402;48.396;-4.472;2022-11-28T12:26:30;17.55;;;3.97;;
41709;SDS011;59402;48.396;-4.472;2022-11-28T12:32:00;16.88;;;2.83;;
41709;SDS011;59402;48.396;-4.472;2022-11-28T12:40:11;16.35;;;3.55;;
41709;SDS011;59402;48.396;-4.472;2022-11-28T12:48:01;15.75;;;3.40;;
41709;SDS011;59402;48.396;-4.472;2022-11-28T12:50:31;14.23;;;2.97;;
41709;SDS011;59402;48.396;-4.472;2022-11-28T13:03:33;16.38;;;3.05;;
41709;SDS011;59402;48.396;-4.472;2022-11-28T13:11:50;23.73;;;3.75;;
41709;SDS011;59402;48.396;-4.472;2022-11-28T13:14:31;18.00;;;3.20;;
41709;SDS011;59402;48.396;-4.472;2022-11-28T13:19:51;11.35;;;2.95;;
41709;SDS011;59402;48.396;-4.472;2022-11-28T13:22:24;19.95;;;3.40;;
41709;SDS011;59402;48.396;-4.472;2022-11-28T13:30:43;17.02;;;2.80;;
41709;SDS011;59402;48.396;-4.472;2022-11-28T13:36:05;15.77;;;3.72;;
41709;SDS011;59402;48.396;-4.472;2022-11-28T13:41:47;14.82;;;3.47;;
41709;SDS011;59402;48.396;-4.472;2022-11-28T13:44:20;21.00;;;3.38;;
41709;SDS011;59402;48.396;-4.472;2022-11-28T13:46:49;15.38;;;3.13;;
41709;SDS011;59402;48.396;-4.472;2022-11-28T13:49:22;20.42;;;3.22;;
41709;SDS011;59402;48.396;-4.472;2022-11-28T13:52:30;20.65;;;2.90;;
41709;SDS011;59402;48.396;-4.472;2022-11-28T13:54:42;14.98;;;2.75;;
41709;SDS011;59402;48.396;-4.472;2022-11-28T13:57:21;14.50;;;2.70;;
41709;SDS011;59402;48.396;-4.472;2022-11-28T13:59:52;17.02;;;3.30;;
41709;SDS011;59402;48.396;-4.472;2022-11-28T14:02:28;20.33;;;3.35;;
41709;SDS011;59402;48.396;-4.472;2022-11-28T14:05:03;14.48;;;2.67;;
41709;SDS011;59402;48.396;-4.472;2022-11-28T14:07:31;17.42;;;3.13;;
41709;SDS011;59402;48.396;-4.472;2022-11-28T14:13:16;15.63;;;2.95;;
41709;SDS011;59402;48.396;-4.472;2022-11-28T14:22:12;11.95;;;2.70;;
41709;SDS011;59402;48.396;-4.472;2022-11-28T14:24:48;12.70;;;2.58;;
41709;SDS011;59402;48.396;-4.472;2022-11-28T14:27:26;13.00;;;2.22;;
41709;SDS011;59402;48.396;-4.472;2022-11-28T14:29:57;14.32;;;2.53;;
41709;SDS011;59402;48.396;-4.472;2022-11-28T14:32:37;11.18;;;2.00;;
41709;SDS011;59402;48.396;-4.472;2022-11-28T14:35:04;18.65;;;2.95;;
41709;SDS011;59402;48.396;-4.472;2022-11-28T14:37:35;13.65;;;2.78;;
41709;SDS011;59402;48.396;-4.472;2022-11-28T14:45:49;15.00;;;2.58;;
41709;SDS011;59402;48.396;-4.472;2022-11-28T14:50:51;15.17;;;2.93;;
41709;SDS011;59402;48.396;-4.472;2022-11-28T14:56:19;20.40;;;3.33;;
41709;SDS011;59402;48.396;-4.472;2022-11-28T14:58:48;20.33;;;3.47;;
41709;SDS011;59402;48.396;-4.472;2022-11-28T15:01:20;19.73;;;3.65;;
41709;SDS011;59402;48.396;-4.472;2022-11-28T15:04:11;18.05;;;3.40;;
41709;SDS011;59402;48.396;-4.472;2022-11-28T15:06:48;24.80;;;4.13;;
41709;SDS011;59402;48.396;-4.472;2022-11-28T15:09:48;26.90;;;3.95;;
41709;SDS011;59402;48.396;-4.472;2022-11-28T15:14:57;15.98;;;2.75;;
41709;SDS011;59402;48.396;-4.472;2022-11-28T15:17:24;13.57;;;2.38;;
41709;SDS011;59402;48.396;-4.472;2022-11-28T15:19:53;11.98;;;2.05;;
41709;SDS011;59402;48.396;-4.472;2022-11-28T15:25:16;12.30;;;1.70;;
41709;SDS011;59402;48.396;-4.472;2022-11-28T15:27:44;10.63;;;2.20;;
41709;SDS011;59402;48.396;-4.472;2022-11-28T15:30:13;14.32;;;2.60;;
41709;SDS011;59402;48.396;-4.472;2022-11-28T15:32:59;13.75;;;1.98;;
41709;SDS011;59402;48.396;-4.472;2022-11-28T15:35:25;12.18;;;2.03;;
41709;SDS011;59402;48.396;-4.472;2022-11-28T15:37:57;12.25;;;2.38;;
41709;SDS011;59402;48.396;-4.472;2022-11-28T15:40:33;10.88;;;2.40;;
41709;SDS011;59402;48.396;-4.472;2022-11-28T15:43:00;14.25;;;2.90;;
41709;SDS011;59402;48.396;-4.472;2022-11-28T15:45:28;14.88;;;2.40;;
41709;SDS011;59402;48.396;-4.472;2022-11-28T15:47:55;17.85;;;2.38;;
41709;SDS011;59402;48.396;-4.472;2022-11-28T15:50:25;15.35;;;2.38;;
41709;SDS011;59402;48.396;-4.472;2022-11-28T15:55:20;16.65;;;3.08;;
41709;SDS011;59402;48.396;-4.472;2022-11-28T15:57:47;17.10;;;3.08;;
41709;SDS011;59402;48.396;-4.472;2022-11-28T16:00:13;17.23;;;2.83;;
41709;SDS011;59402;48.396;-4.472;2022-11-28T16:02:41;18.73;;;3.47;;
41709;SDS011;59402;48.396;-4.472;2022-11-28T16:07:40;22.13;;;3.47;;
41709;SDS011;59402;48.396;-4.472;2022-11-28T16:10:16;19.02;;;2.92;;
41709;SDS011;59402;48.396;-4.472;2022-11-28T16:12:46;21.27;;;3.58;;
41709;SDS011;59402;48.396;-4.472;2022-11-28T16:15:18;21.10;;;4.25;;
41709;SDS011;59402;48.396;-4.472;2022-11-28T16:17:45;22.83;;;4.13;;
41709;SDS011;59402;48.396;-4.472;2022-11-28T16:20:21;19.45;;;3.95;;
41709;SDS011;59402;48.396;-4.472;2022-11-28T16:22:48;21.58;;;4.18;;
41709;SDS011;59402;48.396;-4.472;2022-11-28T16:25:21;25.85;;;3.60;;
41709;SDS011;59402;48.396;-4.472;2022-11-28T16:27:48;16.88;;;3.67;;
41709;SDS011;59402;48.396;-4.472;2022-11-28T16:30:24;17.65;;;4.18;;
41709;SDS011;59402;48.396;-4.472;2022-11-28T16:32:51;20.15;;;3.80;;
41709;SDS011;59402;48.396;-4.472;2022-11-28T16:37:51;24.00;;;4.63;;
41709;SDS011;59402;48.396;-4.472;2022-11-28T16:40:21;23.60;;;4.22;;
41709;SDS011;59402;48.396;-4.472;2022-11-28T16:42:50;27.98;;;3.95;;
41709;SDS011;59402;48.396;-4.472;2022-11-28T16:45:22;21.05;;;3.42;;
41709;SDS011;59402;48.396;-4.472;2022-11-28T16:48:08;22.02;;;3.97;;
41709;SDS011;59402;48.396;-4.472;2022-11-28T16:50:38;16.02;;;3.55;;
41709;SDS011;59402;48.396;-4.472;2022-11-28T16:53:41;18.85;;;3.92;;
41709;SDS011;59402;48.396;-4.472;2022-11-28T16:58:53;23.85;;;4.28;;
41709;SDS011;59402;48.396;-4.472;2022-11-28T17:01:19;19.80;;;3.70;;
41709;SDS011;59402;48.396;-4.472;2022-11-28T17:03:49;23.25;;;4.68;;
41709;SDS011;59402;48.396;-4.472;2022-11-28T17:06:17;20.20;;;3.65;;
41709;SDS011;59402;48.396;-4.472;2022-11-28T17:08:45;21.95;;;4.38;;
41709;SDS011;59402;48.396;-4.472;2022-11-28T17:11:10;20.27;;;4.43;;
41709;SDS011;59402;48.396;-4.472;2022-11-28T17:13:37;20.60;;;4.57;;
41709;SDS011;59402;48.396;-4.472;2022-11-28T17:16:03;26.77;;;4.80;;
41709;SDS011;59402;48.396;-4.472;2022-11-28T17:18:28;19.40;;;4.68;;
41709;SDS011;59402;48.396;-4.472;2022-11-28T17:20:54;25.58;;;4.30;;
41709;SDS011;59402;48.396;-4.472;2022-11-28T17:23:19;24.45;;;4.95;;
41709;SDS011;59402;48.396;-4.472;2022-11-28T17:25:51;18.48;;;4.30;;
41709;SDS011;59402;48.396;-4.472;2022-11-28T17:28:16;26.02;;;5.07;;
41709;SDS011;59402;48.396;-4.472;2022-11-28T17:30:41;22.67;;;4.15;;
41709;SDS011;59402;48.396;-4.472;2022-11-28T17:33:09;27.60;;;5.47;;
41709;SDS011;59402;48.396;-4.472;2022-11-28T17:35:39;21.63;;;4.65;;
41709;SDS011;59402;48.396;-4.472;2022-11-28T17:38:07;30.55;;;4.43;;
41709;SDS011;59402;48.396;-4.472;2022-11-28T17:40:32;24.00;;;4.50;;
41709;SDS011;59402;48.396;-4.472;2022-11-28T17:42:58;24.25;;;5.20;;
41709;SDS011;59402;48.396;-4.472;2022-11-28T17:45:26;21.67;;;6.20;;
41709;SDS011;59402;48.396;-4.472;2022-11-28T17:47:53;19.85;;;4.45;;
41709;SDS011;59402;48.396;-4.472;2022-11-28T17:50:19;28.65;;;5.18;;
41709;SDS011;59402;48.396;-4.472;2022-11-28T17:52:45;26.17;;;5.50;;
41709;SDS011;59402;48.396;-4.472;2022-11-28T17:55:11;24.05;;;5.28;;
41709;SDS011;59402;48.396;-4.472;2022-11-28T17:57:36;27.67;;;5.78;;
41709;SDS011;59402;48.396;-4.472;2022-11-28T18:00:03;26.58;;;5.50;;